createdAt,value
2023-05-11T00:01:45.245Z,12.60
2023-05-11T00:04:12.883Z,12.55
2023-05-11T00:06:40.385Z,12.62
2023-05-11T00:09:09.353Z,12.64
2023-05-11T00:11:36.944Z,12.62
2023-05-11T00:14:04.581Z,12.61
2023-05-11T00:16:32.179Z,12.62
2023-05-11T00:18:59.834Z,12.60
2023-05-11T00:21:27.537Z,12.59
2023-05-11T00:23:55.073Z,12.59
2023-05-11T00:26:22.638Z,12.56
2023-05-11T00:28:50.123Z,12.62
2023-05-11T00:31:17.635Z,12.62
2023-05-11T00:33:45.164Z,12.55
2023-05-11T00:36:12.662Z,12.60
2023-05-11T00:38:41.196Z,12.58
2023-05-11T00:41:09.393Z,12.58
2023-05-11T00:43:36.867Z,12.56
2023-05-11T00:46:04.738Z,12.56
2023-05-11T00:48:32.389Z,12.52
2023-05-11T00:51:04.373Z,12.59
2023-05-11T00:53:31.899Z,12.45
2023-05-11T00:56:00.138Z,12.49
2023-05-11T00:58:28.402Z,12.47
2023-05-11T01:00:55.945Z,12.40
2023-05-11T01:03:23.995Z,12.33
2023-05-11T01:06:17.090Z,12.25
2023-05-11T01:08:51.872Z,12.21
2023-05-11T01:11:27.367Z,12.21
2023-05-11T01:14:01.026Z,12.14
2023-05-11T01:16:33.015Z,12.12
2023-05-11T01:19:08.565Z,12.05
2023-05-11T01:21:37.357Z,12.05
2023-05-11T01:24:41.695Z,12.05
2023-05-11T01:27:24.337Z,12.06
2023-05-11T01:30:16.887Z,12.07
2023-05-11T01:32:45.581Z,12.08
2023-05-11T01:35:19.343Z,12.07
2023-05-11T01:37:51.450Z,12.04
2023-05-11T01:40:22.541Z,12.05
2023-05-11T01:42:52.438Z,12.05
2023-05-11T01:45:20.325Z,12.08
2023-05-11T01:47:51.091Z,12.09
2023-05-11T01:50:21.826Z,12.08
2023-05-11T01:52:51.488Z,12.05
2023-05-11T01:55:22.407Z,12.04
2023-05-11T01:57:53.487Z,12.03
2023-05-11T02:00:21.760Z,12.03
2023-05-11T02:02:50.796Z,12.03
2023-05-11T02:05:23.091Z,12.05
2023-05-11T02:07:52.476Z,12.03
2023-05-11T02:10:21.356Z,11.98
2023-05-11T02:12:52.920Z,11.97
2023-05-11T02:15:22.726Z,11.94
2023-05-11T02:17:52.070Z,11.93
2023-05-11T02:20:20.952Z,11.92
2023-05-11T02:22:50.516Z,11.95
2023-05-11T02:25:19.146Z,11.93
2023-05-11T02:27:46.761Z,11.94
2023-05-11T02:30:14.586Z,11.94
2023-05-11T02:32:48.679Z,11.97
2023-05-11T02:35:29.246Z,11.96
2023-05-11T02:38:00.104Z,11.96
2023-05-11T02:40:32.269Z,11.90
2023-05-11T02:43:05.921Z,11.92
2023-05-11T02:45:35.305Z,11.81
2023-05-11T02:48:08.589Z,11.72
2023-05-11T02:50:42.035Z,11.72
2023-05-11T02:53:15.714Z,11.62
2023-05-11T02:55:43.490Z,11.62
2023-05-11T02:58:11.218Z,11.54
2023-05-11T03:00:40.178Z,11.56
2023-05-11T03:03:07.952Z,11.49
2023-05-11T03:05:35.518Z,11.50
2023-05-11T03:08:03.185Z,11.45
2023-05-11T03:10:31.461Z,11.44
2023-05-11T03:13:00.115Z,11.48
2023-05-11T03:15:28.884Z,11.49
2023-05-11T03:17:56.906Z,11.53
2023-05-11T03:20:25.061Z,11.57
2023-05-11T03:22:53.377Z,11.56
2023-05-11T03:25:21.698Z,11.50
2023-05-11T03:27:52.279Z,11.51
2023-05-11T03:30:21.577Z,11.50
2023-05-11T03:32:49.350Z,11.48
2023-05-11T03:35:17.482Z,11.47
2023-05-11T03:37:46.173Z,11.53
2023-05-11T03:40:16.830Z,11.48
2023-05-11T03:42:45.236Z,11.46
2023-05-11T03:45:15.794Z,11.53
2023-05-11T03:47:44.537Z,11.47
2023-05-11T03:50:12.414Z,11.40
2023-05-11T03:52:40.308Z,11.47
2023-05-11T03:55:08.916Z,11.54
2023-05-11T03:57:37.110Z,11.58
2023-05-11T04:00:05.140Z,11.64
2023-05-11T04:02:35.720Z,11.68
2023-05-11T04:05:08.872Z,11.70
2023-05-11T04:07:38.266Z,11.74
2023-05-11T04:10:07.134Z,11.73
2023-05-11T04:12:34.685Z,11.74
2023-05-11T04:15:02.245Z,11.82
2023-05-11T04:17:29.712Z,11.82
2023-05-11T04:19:57.252Z,11.81
2023-05-11T04:22:24.771Z,11.84
2023-05-11T04:24:52.322Z,11.87
2023-05-11T04:27:19.820Z,11.90
2023-05-11T04:29:48.543Z,11.91
2023-05-11T04:32:16.564Z,11.93
2023-05-11T04:34:44.068Z,11.94
2023-05-11T04:37:11.604Z,11.97
2023-05-11T04:39:39.134Z,11.99
2023-05-11T04:42:06.733Z,12.00
2023-05-11T04:44:34.309Z,12.03
2023-05-11T04:47:02.116Z,12.11
2023-05-11T04:49:29.729Z,12.10
2023-05-11T04:51:57.301Z,12.12
2023-05-11T04:54:24.820Z,12.15
2023-05-11T04:56:52.369Z,12.19
2023-05-11T04:59:19.910Z,12.23
2023-05-11T05:01:47.462Z,12.24
2023-05-11T05:04:15.166Z,12.33
2023-05-11T05:06:42.786Z,12.33
2023-05-11T05:09:11.242Z,12.33
2023-05-11T05:11:38.835Z,12.40
2023-05-11T05:14:06.354Z,12.29
2023-05-11T05:16:34.123Z,12.37
2023-05-11T05:19:01.857Z,12.37
2023-05-11T05:21:29.588Z,12.40
2023-05-11T05:23:57.127Z,12.42
2023-05-11T05:26:24.638Z,12.46
2023-05-11T05:28:52.095Z,12.52
2023-05-11T05:31:19.633Z,12.47
2023-05-11T05:33:47.207Z,12.45
2023-05-11T05:36:14.713Z,12.51
2023-05-11T05:38:42.315Z,12.58
2023-05-11T05:41:09.891Z,12.62
2023-05-11T05:43:37.440Z,12.57
2023-05-11T05:46:05.020Z,12.67
2023-05-11T05:48:32.682Z,12.76
2023-05-11T05:51:00.770Z,12.83
2023-05-11T05:53:28.349Z,12.92
2023-05-11T05:55:55.845Z,13.02
2023-05-11T05:58:23.466Z,13.11
2023-05-11T06:00:51.119Z,13.13
2023-05-11T06:03:18.887Z,13.13
2023-05-11T06:05:46.522Z,13.20
2023-05-11T06:08:14.043Z,13.28
2023-05-11T06:10:41.580Z,13.31
2023-05-11T06:13:09.545Z,13.37
2023-05-11T06:15:37.174Z,13.37
2023-05-11T06:18:04.790Z,13.43
2023-05-11T06:20:35.663Z,13.50
2023-05-11T06:23:03.196Z,13.49
2023-05-11T06:25:30.726Z,13.53
2023-05-11T06:27:58.263Z,13.56
2023-05-11T06:30:25.996Z,13.64
2023-05-11T06:32:53.637Z,13.69
2023-05-11T06:35:21.582Z,13.74
2023-05-11T06:37:51.042Z,13.95
2023-05-11T06:40:19.586Z,14.06
2023-05-11T06:42:49.908Z,14.13
2023-05-11T06:45:19.219Z,14.29
2023-05-11T06:47:47.065Z,14.39
2023-05-11T06:50:14.819Z,14.37
2023-05-11T06:52:42.349Z,14.48
2023-05-11T06:55:14.065Z,14.67
2023-05-11T06:57:41.606Z,14.62
2023-05-11T07:00:09.778Z,14.88
2023-05-11T07:02:37.309Z,15.22
2023-05-11T07:05:05.171Z,15.40
2023-05-11T07:07:32.743Z,15.55
2023-05-11T07:10:00.266Z,15.73
2023-05-11T07:12:28.055Z,15.79
2023-05-11T07:14:55.630Z,15.95
2023-05-11T07:17:23.386Z,16.16
2023-05-11T07:19:52.262Z,16.11
2023-05-11T07:22:20.060Z,16.52
2023-05-11T07:24:47.736Z,16.65
2023-05-11T07:27:15.409Z,16.62
2023-05-11T07:29:42.894Z,16.64
2023-05-11T07:32:10.417Z,16.76
2023-05-11T07:34:38.252Z,16.56
2023-05-11T07:37:05.951Z,16.57
2023-05-11T07:39:33.545Z,16.62
2023-05-11T07:42:01.107Z,16.80
2023-05-11T07:44:29.203Z,16.63
2023-05-11T07:46:57.497Z,16.36
2023-05-11T07:49:35.581Z,16.46
2023-05-11T07:52:10.470Z,16.62
2023-05-11T07:54:38.844Z,16.47
2023-05-11T07:57:06.844Z,16.80
2023-05-11T07:59:34.469Z,17.02
2023-05-11T08:02:03.201Z,16.99
2023-05-11T08:04:32.099Z,17.27
2023-05-11T08:06:59.633Z,17.12
2023-05-11T08:09:27.148Z,17.42
2023-05-11T08:11:56.542Z,17.98
2023-05-11T08:14:25.311Z,18.17
2023-05-11T08:16:52.855Z,18.21
2023-05-11T08:19:20.477Z,17.98
2023-05-11T08:21:47.977Z,17.98
2023-05-11T08:24:15.515Z,17.63
2023-05-11T08:26:43.005Z,17.43
2023-05-11T08:29:12.455Z,17.08
2023-05-11T08:31:40.580Z,17.10
2023-05-11T08:34:18.446Z,17.07
2023-05-11T08:36:47.233Z,17.17
2023-05-11T08:39:21.544Z,17.26
2023-05-11T08:42:05.269Z,17.47
2023-05-11T08:44:33.908Z,17.56
2023-05-11T08:47:21.021Z,18.01
2023-05-11T08:49:49.523Z,18.02
2023-05-11T08:52:17.874Z,18.16
2023-05-11T08:54:46.637Z,18.15
2023-05-11T08:57:15.586Z,18.50
2023-05-11T08:59:46.147Z,18.93
2023-05-11T09:02:20.975Z,19.55
2023-05-11T09:04:49.963Z,19.61
2023-05-11T09:07:18.327Z,20.00
2023-05-11T09:09:47.994Z,20.14
2023-05-11T09:12:17.019Z,20.34
2023-05-11T09:14:44.902Z,20.04
2023-05-11T09:17:12.501Z,20.16
2023-05-11T09:20:02.048Z,20.21
2023-05-11T09:22:31.562Z,20.41
2023-05-11T09:25:04.000Z,20.41
2023-05-11T09:27:32.273Z,19.95
2023-05-11T09:32:56.296Z,19.47
2023-05-11T09:35:29.385Z,20.48
2023-05-11T09:38:15.124Z,20.31
2023-05-11T09:40:52.284Z,20.19
2023-05-11T09:43:31.856Z,20.16
2023-05-11T09:46:01.787Z,19.56
2023-05-11T09:48:32.782Z,20.04
2023-05-11T09:51:06.027Z,20.05
2023-05-11T09:53:36.550Z,19.97
2023-05-11T09:56:04.316Z,19.60
2023-05-11T09:58:47.366Z,19.88
2023-05-11T10:01:16.354Z,19.59
2023-05-11T10:04:00.123Z,19.91
2023-05-11T10:06:48.419Z,20.00
2023-05-11T10:09:18.000Z,20.49
2023-05-11T10:11:47.236Z,21.32
2023-05-11T10:14:16.148Z,21.47
2023-05-11T10:16:44.747Z,21.44
2023-05-11T10:19:13.718Z,20.99
2023-05-11T10:21:42.433Z,20.59
2023-05-11T10:24:11.658Z,20.72
2023-05-11T10:26:39.787Z,20.13
2023-05-11T10:29:07.638Z,19.88
2023-05-11T10:31:36.688Z,19.64
2023-05-11T10:34:05.494Z,19.69
2023-05-11T10:36:33.208Z,19.70
2023-05-11T10:39:00.770Z,19.58
2023-05-11T10:41:31.710Z,19.63
2023-05-11T10:44:41.398Z,19.19
2023-05-11T10:47:35.243Z,19.15
2023-05-11T10:50:14.535Z,19.12
2023-05-11T10:52:51.072Z,19.15
2023-05-11T10:55:45.456Z,18.93
2023-05-11T10:58:34.027Z,18.80
2023-05-11T11:01:29.331Z,18.66
2023-05-11T11:04:02.892Z,17.81
2023-05-11T11:06:30.455Z,17.25
2023-05-11T11:08:58.953Z,17.15
2023-05-11T11:11:42.547Z,16.95
2023-05-11T11:14:11.507Z,16.31
2023-05-11T11:16:40.281Z,16.41
2023-05-11T11:19:32.746Z,16.48
2023-05-11T11:22:02.839Z,16.64
2023-05-11T11:24:39.544Z,16.98
2023-05-11T11:27:08.611Z,16.85
2023-05-11T11:29:37.885Z,16.74
2023-05-11T11:32:23.799Z,16.64
2023-05-11T11:34:52.455Z,16.29
2023-05-11T11:37:22.253Z,16.39
2023-05-11T11:39:53.678Z,16.12
2023-05-11T11:42:39.862Z,15.97
2023-05-11T11:45:40.035Z,15.61
2023-05-11T11:48:14.737Z,15.56
2023-05-11T11:50:43.724Z,15.66
2023-05-11T11:53:32.053Z,15.54
2023-05-11T11:55:59.591Z,15.22
2023-05-11T11:58:42.347Z,15.17
2023-05-11T12:01:13.004Z,15.18
2023-05-11T12:03:42.360Z,14.72
2023-05-11T12:06:12.260Z,14.68
2023-05-11T12:08:41.174Z,14.25
2023-05-11T12:11:09.226Z,14.27
2023-05-11T12:13:36.961Z,14.09
2023-05-11T12:16:16.177Z,13.98
2023-05-11T12:18:53.558Z,13.92
2023-05-11T12:21:26.068Z,13.88
2023-05-11T12:23:54.801Z,13.92
2023-05-11T12:26:23.553Z,13.96
2023-05-11T12:28:52.705Z,14.07
2023-05-11T12:31:21.179Z,13.97
2023-05-11T12:33:50.310Z,13.85
2023-05-11T12:36:20.233Z,14.01
2023-05-11T12:38:49.175Z,13.98
2023-05-11T12:41:23.769Z,14.09
2023-05-11T12:43:53.484Z,13.93
2023-05-11T12:46:22.723Z,14.24
2023-05-11T12:48:51.801Z,14.27
2023-05-11T12:51:45.594Z,14.19
2023-05-11T12:54:13.271Z,14.06
2023-05-11T12:56:50.125Z,13.98
2023-05-11T12:59:30.156Z,14.30
2023-05-11T13:02:19.252Z,14.30
2023-05-11T13:04:48.241Z,14.29
2023-05-11T13:07:25.955Z,14.25
2023-05-11T13:10:00.874Z,14.29
2023-05-11T13:12:31.935Z,14.48
2023-05-11T13:15:07.411Z,14.47
2023-05-11T13:17:37.347Z,14.48
2023-05-11T13:20:18.014Z,14.43
2023-05-11T13:22:46.007Z,14.46
2023-05-11T13:25:14.873Z,14.36
2023-05-11T13:27:42.473Z,14.53
2023-05-11T13:30:10.825Z,14.59
2023-05-11T13:32:39.275Z,14.67
2023-05-11T13:35:07.851Z,14.93
2023-05-11T13:37:35.415Z,14.88
2023-05-11T13:40:03.041Z,15.00
2023-05-11T13:42:30.695Z,15.10
2023-05-11T13:44:58.403Z,15.01
2023-05-11T13:47:27.539Z,15.14
2023-05-11T13:49:55.266Z,15.12
2023-05-11T13:52:23.386Z,15.07
2023-05-11T13:54:51.313Z,15.12
2023-05-11T13:57:18.918Z,15.21
2023-05-11T13:59:46.527Z,15.41
2023-05-11T14:02:14.991Z,15.44
2023-05-11T14:04:42.555Z,15.52
2023-05-11T14:07:10.081Z,15.54
2023-05-11T14:09:37.929Z,15.61
2023-05-11T14:12:05.810Z,15.78
2023-05-11T14:14:33.611Z,15.77
2023-05-11T14:17:01.401Z,15.84
2023-05-11T14:19:29.030Z,15.88
2023-05-11T14:21:56.812Z,15.88
2023-05-11T14:24:24.477Z,15.95
2023-05-11T14:26:52.147Z,15.96
2023-05-11T14:29:19.738Z,16.08
2023-05-11T14:31:47.600Z,16.11
2023-05-11T14:34:15.095Z,16.05
2023-05-11T14:36:42.606Z,16.18
2023-05-11T14:39:10.224Z,16.18
2023-05-11T14:41:37.977Z,16.13
2023-05-11T14:44:05.661Z,16.23
2023-05-11T14:46:33.272Z,16.15
2023-05-11T14:49:00.932Z,16.25
2023-05-11T14:51:28.492Z,16.28
2023-05-11T14:53:56.108Z,16.28
2023-05-11T14:56:23.689Z,16.29
2023-05-11T14:58:51.269Z,16.36
2023-05-11T15:01:20.002Z,16.07
2023-05-11T15:03:47.652Z,16.18
2023-05-11T15:06:20.940Z,16.04
2023-05-11T15:08:49.818Z,16.06
2023-05-11T15:11:18.295Z,16.11
2023-05-11T15:13:47.463Z,16.00
2023-05-11T15:16:15.267Z,16.10
2023-05-11T15:18:43.166Z,16.18
2023-05-11T15:21:11.673Z,16.24
2023-05-11T15:23:39.305Z,16.21
2023-05-11T15:26:06.978Z,16.23
2023-05-11T15:28:34.597Z,16.10
2023-05-11T15:31:02.159Z,16.17
2023-05-11T15:33:29.777Z,16.09
2023-05-11T15:35:57.349Z,16.24
2023-05-11T15:38:24.967Z,16.09
2023-05-11T15:40:52.547Z,15.99
2023-05-11T15:43:20.102Z,16.11
2023-05-11T15:45:47.727Z,16.21
2023-05-11T15:48:15.847Z,16.00
2023-05-11T15:50:43.427Z,15.98
2023-05-11T15:53:11.251Z,16.02
2023-05-11T15:55:39.095Z,15.96
2023-05-11T15:58:10.443Z,15.88
2023-05-11T16:00:38.283Z,16.06
2023-05-11T16:03:07.067Z,16.06
2023-05-11T16:05:34.813Z,16.09
2023-05-11T16:08:02.389Z,16.09
2023-05-11T16:10:30.040Z,16.01
2023-05-11T16:12:58.906Z,16.06
2023-05-11T16:15:27.209Z,16.04
2023-05-11T16:17:54.794Z,15.86
2023-05-11T16:20:22.398Z,16.04
2023-05-11T16:22:49.981Z,16.15
2023-05-11T16:25:17.760Z,16.10
2023-05-11T16:27:45.470Z,16.22
2023-05-11T16:30:23.220Z,16.41
2023-05-11T16:32:53.615Z,16.51
2023-05-11T16:35:21.648Z,16.52
2023-05-11T16:37:49.422Z,16.45
2023-05-11T16:40:19.053Z,16.59
2023-05-11T16:42:48.540Z,16.56
2023-05-11T16:45:16.538Z,16.43
2023-05-11T16:47:46.190Z,16.53
2023-05-11T16:50:14.873Z,16.61
2023-05-11T16:52:43.575Z,16.72
2023-05-11T16:55:11.495Z,16.54
2023-05-11T16:57:39.036Z,16.74
2023-05-11T17:00:07.475Z,16.75
2023-05-11T17:02:35.215Z,16.52
2023-05-11T17:05:06.578Z,16.59
2023-05-11T17:07:35.328Z,16.30
2023-05-11T17:10:02.909Z,16.25
2023-05-11T17:12:31.868Z,16.30
2023-05-11T17:14:59.938Z,16.24
2023-05-11T17:17:27.562Z,16.22
2023-05-11T17:19:55.748Z,15.97
2023-05-11T17:22:23.496Z,15.97
2023-05-11T17:24:51.867Z,15.77
2023-05-11T17:27:19.587Z,15.73
2023-05-11T17:29:47.268Z,15.77
2023-05-11T17:32:14.985Z,15.75
2023-05-11T17:34:42.686Z,15.60
2023-05-11T17:37:20.352Z,15.31
2023-05-11T17:39:52.315Z,15.52
2023-05-11T17:42:21.107Z,15.36
2023-05-11T17:44:48.678Z,15.22
2023-05-11T17:47:16.331Z,15.27
2023-05-11T17:49:43.863Z,15.09
2023-05-11T17:52:11.481Z,15.10
2023-05-11T17:54:39.179Z,14.99
2023-05-11T17:57:06.721Z,14.90
2023-05-11T17:59:35.464Z,14.91
2023-05-11T18:02:03.344Z,14.94
2023-05-11T18:04:31.063Z,14.98
2023-05-11T18:06:59.078Z,14.79
2023-05-11T18:09:26.658Z,14.91
2023-05-11T18:11:54.197Z,15.03
2023-05-11T18:14:21.965Z,14.73
2023-05-11T18:16:50.508Z,14.94
2023-05-11T18:19:19.119Z,14.83
2023-05-11T18:21:46.701Z,14.89
2023-05-11T18:24:15.092Z,14.75
2023-05-11T18:26:42.985Z,14.74
2023-05-11T18:29:10.444Z,14.65
2023-05-11T18:31:38.115Z,14.55
2023-05-11T18:34:05.761Z,14.44
2023-05-11T18:36:33.299Z,14.54
2023-05-11T18:39:01.131Z,14.33
2023-05-11T18:41:29.374Z,14.21
2023-05-11T18:43:57.025Z,14.41
2023-05-11T18:46:24.508Z,14.21
2023-05-11T18:48:52.914Z,14.21
2023-05-11T18:51:22.663Z,14.18
2023-05-11T18:53:51.178Z,14.24
2023-05-11T18:56:18.828Z,14.29
2023-05-11T18:58:46.882Z,14.09
2023-05-11T19:01:15.149Z,14.06
2023-05-11T19:03:42.792Z,14.05
2023-05-11T19:06:10.416Z,14.12
2023-05-11T19:08:37.967Z,14.07
2023-05-11T19:11:10.323Z,13.87
2023-05-11T19:13:38.209Z,13.87
2023-05-11T19:16:05.963Z,13.90
2023-05-11T19:18:35.516Z,13.88
2023-05-11T19:21:05.196Z,13.95
2023-05-11T19:23:34.355Z,13.88
2023-05-11T19:26:01.914Z,13.74
2023-05-11T19:28:29.472Z,13.68
2023-05-11T19:31:03.290Z,13.60
2023-05-11T19:33:30.908Z,13.63
2023-05-11T19:35:58.550Z,13.59
2023-05-11T19:38:26.148Z,13.65
2023-05-11T19:40:53.845Z,13.66
2023-05-11T19:43:22.815Z,13.66
2023-05-11T19:45:50.489Z,13.55
2023-05-11T19:48:18.180Z,13.58
2023-05-11T19:50:46.269Z,13.45
2023-05-11T19:53:13.773Z,13.47
2023-05-11T19:55:41.461Z,13.54
2023-05-11T19:58:09.339Z,13.49
2023-05-11T20:00:37.001Z,13.58
2023-05-11T20:03:04.827Z,13.55
2023-05-11T20:05:32.360Z,13.45
2023-05-11T20:08:00.426Z,13.51
2023-05-11T20:10:28.154Z,13.45
2023-05-11T20:12:56.838Z,13.33
2023-05-11T20:15:24.442Z,13.49
2023-05-11T20:17:51.988Z,13.39
2023-05-11T20:20:20.047Z,13.45
2023-05-11T20:22:47.809Z,13.50
2023-05-11T20:25:18.724Z,13.43
2023-05-11T20:27:46.838Z,13.42
2023-05-11T20:30:15.127Z,13.38
2023-05-11T20:34:06.718Z,13.51
2023-05-11T20:35:31.105Z,13.50
2023-05-11T20:37:58.680Z,13.50
2023-05-11T20:40:26.488Z,13.47
2023-05-11T20:42:54.103Z,13.46
2023-05-11T20:45:21.695Z,13.48
2023-05-11T20:47:49.287Z,13.50
2023-05-11T20:50:17.099Z,13.44
2023-05-11T20:52:44.820Z,13.57
2023-05-11T20:55:12.328Z,13.48
2023-05-11T20:57:39.815Z,13.51
2023-05-11T21:00:08.466Z,13.54
2023-05-11T21:02:36.157Z,13.50
2023-05-11T21:05:04.182Z,13.60
2023-05-11T21:07:31.694Z,13.50
2023-05-11T21:09:59.187Z,13.50
2023-05-11T21:12:26.728Z,13.60
2023-05-11T21:14:56.760Z,13.51
2023-05-11T21:17:24.733Z,13.48
2023-05-11T21:19:52.336Z,13.45
2023-05-11T21:22:19.859Z,13.44
2023-05-11T21:24:47.372Z,13.45
2023-05-11T21:27:15.253Z,13.39
2023-05-11T21:29:42.996Z,13.44
2023-05-11T21:32:10.605Z,13.47
2023-05-11T21:34:38.384Z,13.54
2023-05-11T21:37:05.914Z,13.59
2023-05-11T21:39:33.453Z,13.52
2023-05-11T21:42:01.629Z,13.49
2023-05-11T21:44:29.771Z,13.57
2023-05-11T21:46:57.389Z,13.54
2023-05-11T21:49:25.064Z,13.59
2023-05-11T21:51:52.812Z,13.54
2023-05-11T21:54:22.183Z,13.60
2023-05-11T21:56:50.650Z,13.52
2023-05-11T21:59:18.624Z,13.41
2023-05-11T22:01:49.107Z,13.43
2023-05-11T22:04:16.736Z,13.43
2023-05-11T22:06:44.326Z,13.32
2023-05-11T22:09:12.827Z,13.42
2023-05-11T22:11:40.675Z,13.41
2023-05-11T22:14:08.191Z,13.29
2023-05-11T22:16:35.821Z,13.17
2023-05-11T22:19:03.980Z,13.20
2023-05-11T22:21:31.618Z,13.17
2023-05-11T22:23:59.133Z,13.17
2023-05-11T22:26:27.333Z,13.01
2023-05-11T22:28:55.055Z,13.03
2023-05-11T22:31:22.634Z,13.11
2023-05-11T22:33:50.248Z,12.96
2023-05-11T22:36:17.726Z,12.98
2023-05-11T22:38:45.263Z,12.93
2023-05-11T22:41:12.752Z,12.84
2023-05-11T22:43:40.283Z,12.86
2023-05-11T22:46:07.862Z,12.80
2023-05-11T22:48:35.377Z,12.73
2023-05-11T22:51:06.277Z,12.87
2023-05-11T22:53:33.861Z,12.94
2023-05-11T22:56:05.797Z,12.78
2023-05-11T22:58:33.309Z,12.83
2023-05-11T23:01:01.294Z,12.83
2023-05-11T23:03:29.026Z,12.71
2023-05-11T23:05:56.543Z,12.72
2023-05-11T23:08:26.177Z,12.61
2023-05-11T23:10:54.097Z,12.56
2023-05-11T23:13:21.646Z,12.51
2023-05-11T23:15:50.317Z,12.53
2023-05-11T23:18:17.938Z,12.49
2023-05-11T23:20:45.520Z,12.45
2023-05-11T23:23:13.388Z,12.52
2023-05-11T23:25:41.151Z,12.50
2023-05-11T23:28:11.420Z,12.53
2023-05-11T23:30:39.046Z,12.47
2023-05-11T23:33:06.544Z,12.46
2023-05-11T23:35:34.176Z,12.42
2023-05-11T23:38:01.680Z,12.41
2023-05-11T23:40:29.364Z,12.30
2023-05-11T23:42:57.271Z,12.37
2023-05-11T23:45:26.415Z,12.26
2023-05-11T23:47:54.120Z,12.17
2023-05-11T23:50:21.931Z,12.15
2023-05-11T23:52:49.627Z,12.12
2023-05-11T23:55:17.157Z,12.00
2023-05-11T23:57:45.019Z,12.09
